Time;durP1;ratioP1;P1;durP2;ratioP2;P2;SDS_P1;SDS_P2;PMS_P1;PMS_P2;Temp;Humidity;BMP_temperature;BMP_pressure;BME280_temperature;BME280_humidity;BME280_pressure;Samples;Min_cycle;Max_cycle;Signal;HPM_P1;HPM_P2
2024/02/17 00:00:55;;;;;;;15.57;13.13;;;;;;;;;;5020978;28;20198;-55
2024/02/17 00:03:24;;;;;;;16.33;13.80;;;;;;;;;;5022186;28;20264;-55
2024/02/17 00:05:50;;;;;;;15.27;13.20;;;;;;;;;;5020408;28;20201;-55
2024/02/17 00:08:17;;;;;;;13.87;12.47;;;;;;;;;;5012232;28;20190;-56
2024/02/17 00:10:43;;;;;;;15.00;13.37;;;;;;;;;;5011952;28;20237;-55
2024/02/17 00:13:09;;;;;;;14.87;13.27;;;;;;;;;;5017718;28;20645;-55
2024/02/17 00:15:35;;;;;;;13.67;12.20;;;;;;;;;;5012987;28;20685;-60
2024/02/17 00:18:03;;;;;;;14.20;12.17;;;;;;;;;;5019066;28;20642;-55
2024/02/17 00:20:29;;;;;;;13.80;12.27;;;;;;;;;;5020977;28;20678;-55
2024/02/17 00:22:55;;;;;;;17.87;11.90;;;;;;;;;;5020131;28;20201;-55
2024/02/17 00:25:21;;;;;;;17.70;13.07;;;;;;;;;;5014262;28;20276;-59
2024/02/17 00:27:47;;;;;;;15.70;13.30;;;;;;;;;;5020752;28;20267;-60
2024/02/17 00:30:15;;;;;;;14.70;12.30;;;;;;;;;;5017352;28;20201;-60
2024/02/17 00:32:41;;;;;;;15.80;13.70;;;;;;;;;;5024454;28;20489;-60
2024/02/17 00:35:11;;;;;;;17.70;13.60;;;;;;;;;;5016677;28;20201;-59
2024/02/17 00:37:37;;;;;;;13.47;11.97;;;;;;;;;;5022920;28;20673;-59
2024/02/17 00:40:05;;;;;;;15.47;13.20;;;;;;;;;;5021447;28;20188;-59
2024/02/17 00:42:31;;;;;;;15.10;12.87;;;;;;;;;;5016863;28;20218;-60
2024/02/17 00:44:57;;;;;;;17.67;13.70;;;;;;;;;;5015023;28;20194;-60
2024/02/17 00:47:23;;;;;;;16.10;12.83;;;;;;;;;;5017626;28;21651;-59
2024/02/17 00:49:50;;;;;;;17.50;13.87;;;;;;;;;;5017356;28;20227;-60
2024/02/17 00:52:16;;;;;;;17.50;13.80;;;;;;;;;;5020380;28;20205;-59
2024/02/17 00:54:42;;;;;;;18.87;14.03;;;;;;;;;;5014342;28;20214;-60
2024/02/17 00:57:08;;;;;;;18.20;14.57;;;;;;;;;;5020127;28;20636;-59
2024/02/17 00:59:34;;;;;;;18.70;14.30;;;;;;;;;;5014867;28;20190;-59
2024/02/17 01:02:01;;;;;;;17.43;12.57;;;;;;;;;;5020331;28;20294;-60
2024/02/17 01:04:27;;;;;;;18.33;14.03;;;;;;;;;;5014133;28;20300;-60
2024/02/17 01:06:53;;;;;;;19.33;15.37;;;;;;;;;;5015702;28;20194;-60
2024/02/17 01:09:19;;;;;;;18.23;14.83;;;;;;;;;;5015988;28;20217;-60
2024/02/17 01:11:45;;;;;;;19.20;13.47;;;;;;;;;;5024067;28;20213;-58
2024/02/17 01:14:11;;;;;;;20.47;14.63;;;;;;;;;;5020579;28;20591;-57
2024/02/17 01:16:37;;;;;;;17.73;14.33;;;;;;;;;;5018142;28;20295;-59
2024/02/17 01:19:03;;;;;;;19.40;14.07;;;;;;;;;;5016986;28;20313;-58
2024/02/17 01:21:31;;;;;;;20.27;15.80;;;;;;;;;;5016254;28;20177;-61
2024/02/17 01:23:58;;;;;;;18.20;14.80;;;;;;;;;;5017965;28;20178;-58
2024/02/17 01:26:24;;;;;;;18.77;14.50;;;;;;;;;;5023100;28;20198;-59
2024/02/17 01:28:50;;;;;;;18.20;13.67;;;;;;;;;;5024256;28;20543;-59
2024/02/17 01:31:16;;;;;;;16.73;13.33;;;;;;;;;;5023521;28;20217;-59
2024/02/17 01:33:42;;;;;;;17.73;14.57;;;;;;;;;;5015629;28;20217;-60
2024/02/17 01:36:17;;;;;;;18.40;14.23;;;;;;;;;;5017825;28;20220;-56
2024/02/17 01:38:45;;;;;;;20.30;15.30;;;;;;;;;;5011984;28;20662;-56
2024/02/17 01:41:11;;;;;;;17.67;14.00;;;;;;;;;;5020068;28;20623;-56
2024/02/17 01:43:37;;;;;;;19.50;14.50;;;;;;;;;;5020521;28;20201;-55
2024/02/17 01:46:03;;;;;;;15.93;14.20;;;;;;;;;;5021228;28;20198;-56
2024/02/17 01:48:30;;;;;;;20.33;13.57;;;;;;;;;;5020989;28;20182;-55
2024/02/17 01:50:56;;;;;;;23.47;14.97;;;;;;;;;;5024502;28;20219;-56
2024/02/17 01:53:23;;;;;;;18.90;14.77;;;;;;;;;;5020634;28;20190;-55
2024/02/17 01:55:49;;;;;;;18.43;13.83;;;;;;;;;;5024803;28;20619;-55
2024/02/17 01:58:15;;;;;;;19.27;13.93;;;;;;;;;;5019995;28;20273;-56
2024/02/17 02:00:41;;;;;;;19.13;14.13;;;;;;;;;;5024318;28;20210;-56
2024/02/17 02:03:07;;;;;;;16.47;13.10;;;;;;;;;;5022139;28;20189;-55
2024/02/17 02:05:33;;;;;;;19.03;13.97;;;;;;;;;;5024017;28;20181;-56
2024/02/17 02:07:59;;;;;;;19.00;14.43;;;;;;;;;;5022451;28;20194;-56
2024/02/17 02:10:25;;;;;;;20.57;14.33;;;;;;;;;;5024749;28;20239;-56
2024/02/17 02:12:51;;;;;;;17.93;15.20;;;;;;;;;;5019166;28;20514;-56
2024/02/17 02:15:18;;;;;;;17.43;13.33;;;;;;;;;;5021179;28;20206;-56
2024/02/17 02:17:45;;;;;;;18.97;14.37;;;;;;;;;;5025071;28;20178;-55
2024/02/17 02:20:11;;;;;;;17.57;13.73;;;;;;;;;;5025906;28;20269;-56
2024/02/17 02:22:38;;;;;;;17.43;14.60;;;;;;;;;;5023281;28;20694;-56
2024/02/17 02:25:06;;;;;;;20.97;14.77;;;;;;;;;;5020871;28;20708;-55
2024/02/17 02:27:32;;;;;;;18.07;13.97;;;;;;;;;;5022150;28;20211;-55
2024/02/17 02:29:59;;;;;;;16.07;13.90;;;;;;;;;;5017708;28;20214;-56
2024/02/17 02:32:26;;;;;;;19.30;15.23;;;;;;;;;;5020519;28;20272;-56
2024/02/17 02:34:53;;;;;;;16.03;13.83;;;;;;;;;;5018649;28;20198;-55
2024/02/17 02:37:19;;;;;;;23.13;15.37;;;;;;;;;;5025405;28;20182;-55
2024/02/17 02:39:45;;;;;;;19.30;15.27;;;;;;;;;;5022641;28;20198;-56
2024/02/17 02:42:11;;;;;;;15.87;14.13;;;;;;;;;;5028015;28;20247;-56
2024/02/17 02:44:37;;;;;;;22.10;15.47;;;;;;;;;;5021148;28;20190;-56
2024/02/17 02:47:03;;;;;;;16.50;14.67;;;;;;;;;;5025404;28;20229;-52
2024/02/17 02:49:29;;;;;;;17.63;14.47;;;;;;;;;;5020491;28;20638;-52
2024/02/17 02:51:55;;;;;;;20.53;15.47;;;;;;;;;;5020391;28;20182;-53
2024/02/17 02:54:21;;;;;;;24.13;16.07;;;;;;;;;;5015529;28;20646;-55
2024/02/17 02:56:48;;;;;;;19.97;15.67;;;;;;;;;;5022963;28;20221;-56
2024/02/17 02:59:14;;;;;;;21.40;15.30;;;;;;;;;;5026155;28;20653;-56
2024/02/17 03:01:40;;;;;;;19.50;16.50;;;;;;;;;;5024044;28;20189;-56
2024/02/17 03:04:06;;;;;;;20.07;15.10;;;;;;;;;;5022202;28;20591;-56
2024/02/17 03:06:32;;;;;;;22.47;15.13;;;;;;;;;;5023459;28;20567;-56
2024/02/17 03:08:58;;;;;;;24.37;15.37;;;;;;;;;;5024783;28;20190;-56
2024/02/17 03:11:24;;;;;;;21.03;14.73;;;;;;;;;;5021276;28;20190;-56
2024/02/17 03:13:50;;;;;;;21.20;16.00;;;;;;;;;;5017985;28;20196;-56
2024/02/17 03:16:26;;;;;;;21.67;15.73;;;;;;;;;;5022508;28;20201;-56
2024/02/17 03:18:55;;;;;;;20.27;16.10;;;;;;;;;;5017571;28;20244;-56
2024/02/17 03:21:21;;;;;;;22.33;14.90;;;;;;;;;;5022804;28;20204;-55
2024/02/17 03:23:47;;;;;;;20.10;15.77;;;;;;;;;;5018652;28;20721;-56
2024/02/17 03:26:13;;;;;;;20.43;14.33;;;;;;;;;;5021583;28;20220;-56
2024/02/17 03:28:39;;;;;;;20.63;16.30;;;;;;;;;;5024626;28;20684;-56
2024/02/17 03:31:06;;;;;;;20.57;16.27;;;;;;;;;;5016912;28;20185;-55
2024/02/17 03:33:32;;;;;;;19.70;16.20;;;;;;;;;;5021513;28;20204;-55
2024/02/17 03:35:58;;;;;;;20.03;15.23;;;;;;;;;;5021696;28;20223;-55
2024/02/17 03:38:24;;;;;;;18.03;15.00;;;;;;;;;;5022210;28;20194;-56
2024/02/17 03:40:50;;;;;;;17.83;15.00;;;;;;;;;;5020990;28;20190;-55
2024/02/17 03:43:16;;;;;;;19.27;15.37;;;;;;;;;;5021997;28;20206;-56
2024/02/17 03:45:42;;;;;;;20.03;16.23;;;;;;;;;;5019296;28;20607;-56
2024/02/17 03:48:08;;;;;;;19.60;14.57;;;;;;;;;;5022251;28;20186;-56
2024/02/17 03:50:34;;;;;;;20.13;14.87;;;;;;;;;;5020152;28;20209;-56
2024/02/17 03:53:00;;;;;;;20.80;15.80;;;;;;;;;;5015469;28;20296;-56
2024/02/17 03:55:26;;;;;;;19.23;15.47;;;;;;;;;;5019341;28;20213;-60
2024/02/17 03:57:52;;;;;;;16.73;14.10;;;;;;;;;;5023444;28;20177;-60
2024/02/17 04:00:19;;;;;;;17.60;14.07;;;;;;;;;;5018433;28;20187;-60
2024/02/17 04:02:45;;;;;;;18.33;14.37;;;;;;;;;;5022620;28;20186;-60
2024/02/17 04:05:11;;;;;;;18.93;14.33;;;;;;;;;;5020560;28;20191;-60
2024/02/17 04:07:39;;;;;;;18.57;13.97;;;;;;;;;;5019700;28;20565;-57
2024/02/17 04:10:05;;;;;;;16.07;13.30;;;;;;;;;;5018228;28;20191;-59
2024/02/17 04:12:32;;;;;;;17.03;13.93;;;;;;;;;;5020053;28;20207;-59
2024/02/17 04:14:58;;;;;;;18.33;14.37;;;;;;;;;;5023136;28;20211;-60
2024/02/17 04:17:24;;;;;;;18.17;14.57;;;;;;;;;;5024256;28;20179;-60
2024/02/17 04:19:50;;;;;;;18.70;14.70;;;;;;;;;;5017982;28;20219;-60
2024/02/17 04:22:16;;;;;;;18.73;14.33;;;;;;;;;;5021391;28;20531;-59
2024/02/17 04:24:42;;;;;;;14.40;12.83;;;;;;;;;;5019509;28;20274;-59
2024/02/17 04:27:09;;;;;;;18.30;16.42;;;;;;;;;;5016558;28;20435;-59
2024/02/17 04:29:35;;;;;;;18.43;13.53;;;;;;;;;;5018032;28;20185;-60
2024/02/17 04:32:01;;;;;;;14.83;13.23;;;;;;;;;;5023970;28;20192;-58
2024/02/17 04:34:27;;;;;;;16.07;13.50;;;;;;;;;;5023383;28;20215;-60
2024/02/17 04:36:53;;;;;;;15.97;14.27;;;;;;;;;;5025618;28;20288;-60
2024/02/17 04:39:19;;;;;;;16.07;12.57;;;;;;;;;;5014085;28;20589;-60
2024/02/17 04:41:46;;;;;;;18.53;14.20;;;;;;;;;;5023977;28;20182;-61
2024/02/17 04:44:12;;;;;;;18.63;14.37;;;;;;;;;;5017553;28;20236;-58
2024/02/17 04:46:38;;;;;;;18.07;13.40;;;;;;;;;;5019558;28;20185;-59
2024/02/17 04:49:04;;;;;;;17.27;13.77;;;;;;;;;;5018217;28;20662;-60
2024/02/17 04:51:30;;;;;;;16.50;13.67;;;;;;;;;;5022335;28;20178;-60
2024/02/17 04:53:56;;;;;;;18.67;14.03;;;;;;;;;;5022120;28;20178;-59
2024/02/17 04:56:22;;;;;;;16.20;13.30;;;;;;;;;;5023251;28;20210;-60
2024/02/17 04:58:48;;;;;;;14.97;12.67;;;;;;;;;;5016381;28;20307;-60
2024/02/17 05:01:14;;;;;;;19.03;13.80;;;;;;;;;;5022387;28;20182;-59
2024/02/17 05:03:40;;;;;;;15.67;13.63;;;;;;;;;;5015984;28;20186;-59
2024/02/17 05:06:06;;;;;;;15.87;13.37;;;;;;;;;;5015483;28;20219;-53
2024/02/17 05:08:32;;;;;;;15.37;13.23;;;;;;;;;;5017633;28;20707;-55
2024/02/17 05:10:58;;;;;;;15.20;13.43;;;;;;;;;;5019147;28;20228;-52
2024/02/17 05:13:24;;;;;;;15.70;13.97;;;;;;;;;;5016092;28;20245;-51
2024/02/17 05:15:50;;;;;;;15.10;13.50;;;;;;;;;;5023063;28;20650;-52
2024/02/17 05:18:16;;;;;;;17.63;14.60;;;;;;;;;;5021128;28;20873;-53
2024/02/17 05:20:42;;;;;;;16.03;13.20;;;;;;;;;;5021585;28;20186;-56
2024/02/17 05:23:08;;;;;;;14.60;13.00;;;;;;;;;;5022425;28;20186;-52
2024/02/17 05:25:34;;;;;;;15.30;12.97;;;;;;;;;;5018834;28;20189;-52
2024/02/17 05:28:00;;;;;;;14.50;12.97;;;;;;;;;;5016386;28;20529;-53
2024/02/17 05:30:26;;;;;;;15.30;13.70;;;;;;;;;;5021167;28;20183;-52
2024/02/17 05:32:52;;;;;;;15.20;13.27;;;;;;;;;;5029495;28;20192;-55
2024/02/17 05:35:18;;;;;;;16.77;13.23;;;;;;;;;;5019948;28;20259;-53
2024/02/17 05:37:45;;;;;;;17.17;12.93;;;;;;;;;;5027039;28;20196;-51
2024/02/17 05:40:12;;;;;;;17.57;13.23;;;;;;;;;;5021756;28;20296;-51
2024/02/17 05:42:38;;;;;;;15.37;13.30;;;;;;;;;;5020466;28;20210;-53
2024/02/17 05:45:04;;;;;;;17.33;13.37;;;;;;;;;;5024305;28;20788;-54
2024/02/17 05:47:30;;;;;;;17.50;12.00;;;;;;;;;;5024619;28;20695;-52
2024/02/17 05:49:56;;;;;;;15.23;12.73;;;;;;;;;;5020253;28;20186;-54
2024/02/17 05:52:22;;;;;;;15.60;13.50;;;;;;;;;;5025799;28;20185;-52
2024/02/17 05:54:48;;;;;;;16.00;12.93;;;;;;;;;;5020922;28;20260;-53
2024/02/17 05:57:15;;;;;;;15.47;13.87;;;;;;;;;;5022375;28;20189;-54
2024/02/17 05:59:41;;;;;;;20.33;14.07;;;;;;;;;;5026349;28;20626;-52
2024/02/17 06:02:07;;;;;;;16.30;12.87;;;;;;;;;;5019434;28;20240;-52
2024/02/17 06:04:33;;;;;;;16.77;12.70;;;;;;;;;;5020278;28;20179;-52
2024/02/17 06:06:59;;;;;;;14.67;12.53;;;;;;;;;;5021043;28;20186;-54
2024/02/17 06:09:25;;;;;;;15.77;13.33;;;;;;;;;;5026104;28;22591;-52
2024/02/17 06:11:51;;;;;;;15.87;12.30;;;;;;;;;;5027800;28;20227;-53
2024/02/17 06:14:17;;;;;;;14.37;12.87;;;;;;;;;;5027239;28;20185;-52
2024/02/17 06:16:43;;;;;;;14.30;12.50;;;;;;;;;;5026531;28;20465;-56
2024/02/17 06:21:57;;;;;;;13.27;11.83;;;;;;;;;;5013641;28;20606;-56
2024/02/17 06:24:23;;;;;;;13.53;11.67;;;;;;;;;;5017280;28;20206;-55
2024/02/17 06:26:49;;;;;;;13.33;11.63;;;;;;;;;;5027205;28;20197;-56
2024/02/17 06:29:15;;;;;;;13.03;11.67;;;;;;;;;;5025869;28;20182;-56
2024/02/17 06:31:42;;;;;;;15.73;12.80;;;;;;;;;;5022461;28;20222;-56
2024/02/17 06:34:08;;;;;;;17.53;11.50;;;;;;;;;;5025613;28;20497;-55
2024/02/17 06:36:36;;;;;;;14.77;11.63;;;;;;;;;;5024271;28;20260;-56
2024/02/17 06:39:03;;;;;;;14.83;12.87;;;;;;;;;;5018017;28;20201;-55
2024/02/17 06:41:29;;;;;;;12.30;10.40;;;;;;;;;;5017605;28;20231;-56
2024/02/17 06:43:55;;;;;;;13.60;12.17;;;;;;;;;;5019244;28;20288;-55
2024/02/17 06:46:21;;;;;;;15.07;12.57;;;;;;;;;;5020700;28;20248;-56
2024/02/17 06:48:49;;;;;;;12.90;11.40;;;;;;;;;;5018822;28;20197;-55
2024/02/17 06:51:16;;;;;;;13.60;12.03;;;;;;;;;;5016332;28;20272;-55
2024/02/17 06:53:44;;;;;;;14.63;11.80;;;;;;;;;;5018713;28;20174;-55
2024/02/17 06:56:10;;;;;;;16.83;12.27;;;;;;;;;;5016885;28;20682;-56
2024/02/17 06:58:36;;;;;;;13.07;11.60;;;;;;;;;;5014502;28;20277;-56
2024/02/17 07:01:03;;;;;;;26.60;13.10;;;;;;;;;;5019289;28;20209;-56
2024/02/17 07:03:29;;;;;;;15.40;11.20;;;;;;;;;;5020852;28;20182;-56
2024/02/17 07:05:55;;;;;;;16.10;11.77;;;;;;;;;;5020660;28;20198;-55
2024/02/17 07:08:22;;;;;;;13.13;11.73;;;;;;;;;;5019258;28;20227;-56
2024/02/17 07:10:48;;;;;;;12.63;11.13;;;;;;;;;;5021625;28;20211;-56
2024/02/17 07:13:14;;;;;;;12.87;11.47;;;;;;;;;;5017011;28;20495;-55
2024/02/17 07:15:40;;;;;;;12.70;11.27;;;;;;;;;;5017448;28;20595;-55
2024/02/17 07:18:06;;;;;;;14.57;12.20;;;;;;;;;;5016527;28;20694;-56
2024/02/17 07:20:32;;;;;;;15.40;12.10;;;;;;;;;;5014401;28;20194;-56
2024/02/17 07:22:58;;;;;;;15.33;11.37;;;;;;;;;;5021174;28;20644;-55
2024/02/17 07:25:27;;;;;;;16.10;12.30;;;;;;;;;;5013943;28;20197;-57
2024/02/17 07:27:56;;;;;;;13.40;11.73;;;;;;;;;;5020040;28;20214;-58
2024/02/17 07:30:22;;;;;;;13.47;11.77;;;;;;;;;;5019103;28;20620;-58
2024/02/17 07:32:48;;;;;;;14.17;11.57;;;;;;;;;;5015260;28;20236;-58
2024/02/17 07:35:15;;;;;;;12.57;11.33;;;;;;;;;;5017388;28;20287;-58
2024/02/17 07:37:41;;;;;;;15.50;12.57;;;;;;;;;;5014189;28;20528;-58
2024/02/17 07:40:08;;;;;;;15.27;11.77;;;;;;;;;;5015084;28;20183;-58
2024/02/17 07:42:35;;;;;;;15.83;11.97;;;;;;;;;;5021079;28;20700;-58
2024/02/17 07:45:01;;;;;;;13.63;11.60;;;;;;;;;;5022777;28;20186;-58
2024/02/17 07:47:27;;;;;;;15.73;12.17;;;;;;;;;;5018265;28;20654;-58
2024/02/17 07:49:53;;;;;;;17.77;12.47;;;;;;;;;;5019837;28;20723;-58
2024/02/17 07:52:19;;;;;;;14.60;12.73;;;;;;;;;;5017108;28;20240;-57
2024/02/17 07:54:45;;;;;;;16.93;11.80;;;;;;;;;;5013445;28;20202;-58
2024/02/17 07:57:11;;;;;;;14.30;11.57;;;;;;;;;;5023643;28;20645;-58
2024/02/17 07:59:39;;;;;;;13.63;11.87;;;;;;;;;;5017042;28;20274;-58
2024/02/17 08:02:05;;;;;;;13.83;12.27;;;;;;;;;;5016868;28;20170;-58
2024/02/17 08:04:31;;;;;;;13.13;11.20;;;;;;;;;;5017401;28;20178;-58
2024/02/17 08:06:57;;;;;;;16.33;12.50;;;;;;;;;;5020393;28;20515;-58
2024/02/17 08:09:23;;;;;;;17.10;12.20;;;;;;;;;;5023359;28;20240;-58
2024/02/17 08:11:56;;;;;;;15.53;11.67;;;;;;;;;;5018687;28;20627;-58
2024/02/17 08:14:22;;;;;;;15.80;11.70;;;;;;;;;;5014078;28;20277;-58
2024/02/17 08:16:48;;;;;;;13.87;12.40;;;;;;;;;;5017149;28;20257;-58
2024/02/17 08:19:14;;;;;;;14.67;11.70;;;;;;;;;;5019552;28;20340;-57
2024/02/17 08:21:40;;;;;;;13.60;11.60;;;;;;;;;;5017017;28;20196;-58
2024/02/17 08:24:06;;;;;;;13.63;11.67;;;;;;;;;;5023033;28;20186;-58
2024/02/17 08:26:33;;;;;;;14.27;12.10;;;;;;;;;;5021586;28;20190;-58
2024/02/17 08:28:59;;;;;;;14.97;12.83;;;;;;;;;;5016734;28;20886;-57
2024/02/17 08:31:25;;;;;;;22.87;17.07;;;;;;;;;;5020093;28;20186;-57
2024/02/17 08:33:52;;;;;;;23.33;19.92;;;;;;;;;;5018269;28;20431;-56
2024/02/17 08:36:19;;;;;;;25.00;18.03;;;;;;;;;;5021733;28;20282;-56
2024/02/17 08:38:45;;;;;;;21.10;17.10;;;;;;;;;;5016798;28;20209;-58
2024/02/17 08:41:11;;;;;;;26.50;15.67;;;;;;;;;;5015974;28;20597;-59
2024/02/17 08:43:37;;;;;;;18.87;13.40;;;;;;;;;;5015495;28;20691;-60
2024/02/17 08:46:03;;;;;;;38.93;16.53;;;;;;;;;;5015319;28;20229;-59
2024/02/17 08:48:29;;;;;;;36.33;15.40;;;;;;;;;;5018772;28;20197;-59
2024/02/17 08:50:55;;;;;;;22.10;14.53;;;;;;;;;;5019650;28;20186;-59
2024/02/17 08:53:21;;;;;;;18.97;14.40;;;;;;;;;;5016072;28;20255;-58
2024/02/17 08:55:47;;;;;;;19.97;14.73;;;;;;;;;;5018909;28;20225;-59
2024/02/17 08:58:13;;;;;;;18.80;15.10;;;;;;;;;;5019382;28;20606;-59
2024/02/17 09:00:39;;;;;;;17.37;12.93;;;;;;;;;;5018883;28;20181;-59
2024/02/17 09:03:06;;;;;;;17.97;12.97;;;;;;;;;;5018090;28;20477;-58
2024/02/17 09:05:35;;;;;;;19.77;16.27;;;;;;;;;;5018807;28;20272;-59
2024/02/17 09:08:01;;;;;;;23.60;15.17;;;;;;;;;;5018774;28;20184;-58
2024/02/17 09:10:27;;;;;;;19.83;14.77;;;;;;;;;;5018084;28;20179;-59
2024/02/17 09:12:53;;;;;;;23.77;16.43;;;;;;;;;;5020118;28;20280;-58
2024/02/17 09:15:19;;;;;;;25.13;15.57;;;;;;;;;;5019523;28;20220;-59
2024/02/17 09:17:45;;;;;;;23.53;15.93;;;;;;;;;;5019379;28;20178;-58
2024/02/17 09:20:11;;;;;;;19.57;15.37;;;;;;;;;;5016503;28;20185;-58
2024/02/17 09:22:37;;;;;;;21.47;16.63;;;;;;;;;;5020681;28;20548;-61
2024/02/17 09:25:04;;;;;;;20.60;16.23;;;;;;;;;;5016818;28;20174;-60
2024/02/17 09:27:30;;;;;;;21.50;15.47;;;;;;;;;;5022773;28;20190;-59
2024/02/17 09:29:56;;;;;;;21.47;15.67;;;;;;;;;;5024025;28;20548;-58
2024/02/17 09:32:22;;;;;;;18.57;14.93;;;;;;;;;;5015909;28;20571;-60
2024/02/17 09:34:48;;;;;;;21.33;15.13;;;;;;;;;;5015673;28;20203;-59
2024/02/17 09:37:14;;;;;;;18.97;15.17;;;;;;;;;;5024074;28;20205;-59
2024/02/17 09:39:41;;;;;;;19.03;15.40;;;;;;;;;;5018798;28;20491;-60
2024/02/17 09:42:08;;;;;;;20.07;15.87;;;;;;;;;;5026015;28;20225;-59
2024/02/17 09:44:34;;;;;;;20.10;14.77;;;;;;;;;;5016916;28;20190;-57
2024/02/17 09:47:00;;;;;;;22.10;15.13;;;;;;;;;;5022852;28;20544;-60
2024/02/17 09:49:26;;;;;;;20.17;16.65;;;;;;;;;;5016175;28;20446;-59
2024/02/17 09:51:53;;;;;;;31.40;17.20;;;;;;;;;;5025816;28;20587;-57
2024/02/17 09:54:22;;;;;;;23.10;15.57;;;;;;;;;;5015377;28;20178;-60
2024/02/17 09:56:49;;;;;;;21.23;16.20;;;;;;;;;;5021833;28;20609;-59
2024/02/17 09:59:15;;;;;;;22.77;15.87;;;;;;;;;;5017679;28;20193;-59
2024/02/17 10:01:41;;;;;;;22.87;16.37;;;;;;;;;;5020395;28;20217;-59
2024/02/17 10:04:07;;;;;;;24.27;16.33;;;;;;;;;;5018647;28;20285;-59
2024/02/17 10:06:34;;;;;;;28.63;17.93;;;;;;;;;;5021811;28;20266;-58
2024/02/17 10:09:00;;;;;;;24.53;18.57;;;;;;;;;;5020154;28;21654;-59
2024/02/17 10:11:26;;;;;;;26.03;18.67;;;;;;;;;;5025266;28;20200;-59
2024/02/17 10:13:59;;;;;;;27.30;17.67;;;;;;;;;;5022076;28;20665;-58
2024/02/17 10:16:28;;;;;;;20.53;18.07;;;;;;;;;;5026288;28;20559;-58
2024/02/17 10:18:54;;;;;;;25.90;18.92;;;;;;;;;;5022219;28;20900;-58
2024/02/17 10:21:23;;;;;;;28.40;19.30;;;;;;;;;;5024296;28;20449;-58
2024/02/17 10:23:49;;;;;;;23.00;18.57;;;;;;;;;;5018093;28;20337;-59
2024/02/17 10:26:16;;;;;;;25.80;19.90;;;;;;;;;;5020431;28;20236;-58
2024/02/17 10:28:42;;;;;;;29.00;19.43;;;;;;;;;;5021604;28;20178;-57
2024/02/17 10:31:08;;;;;;;25.60;18.23;;;;;;;;;;5025705;28;20737;-59
2024/02/17 10:33:37;;;;;;;24.70;19.77;;;;;;;;;;5023934;28;20185;-59
2024/02/17 10:36:04;;;;;;;30.17;21.73;;;;;;;;;;5023413;28;20386;-59
2024/02/17 10:38:30;;;;;;;24.10;20.53;;;;;;;;;;5021784;28;20286;-57
2024/02/17 10:40:56;;;;;;;34.03;22.40;;;;;;;;;;5020230;28;20178;-59
2024/02/17 10:43:22;;;;;;;29.03;22.60;;;;;;;;;;5020365;28;20771;-59
2024/02/17 10:45:51;;;;;;;23.13;20.43;;;;;;;;;;5022997;28;20315;-59
2024/02/17 10:48:19;;;;;;;31.90;21.87;;;;;;;;;;5021422;28;20643;-59
2024/02/17 10:50:47;;;;;;;29.23;21.50;;;;;;;;;;5017086;28;20241;-59
2024/02/17 10:53:16;;;;;;;28.07;20.37;;;;;;;;;;5018202;28;20222;-57
2024/02/17 10:55:44;;;;;;;24.07;18.30;;;;;;;;;;5018208;28;20294;-58
2024/02/17 10:58:16;;;;;;;20.60;18.40;;;;;;;;;;5017534;28;20413;-57
2024/02/17 11:00:46;;;;;;;24.03;17.37;;;;;;;;;;5016476;28;20271;-58
2024/02/17 11:03:14;;;;;;;24.43;16.47;;;;;;;;;;5017238;28;20182;-57
2024/02/17 11:05:43;;;;;;;22.60;16.13;;;;;;;;;;5016167;28;20181;-57
2024/02/17 11:08:09;;;;;;;21.87;16.77;;;;;;;;;;5020393;28;20187;-57
2024/02/17 11:10:36;;;;;;;19.07;15.90;;;;;;;;;;5024160;28;20209;-57
2024/02/17 11:13:02;;;;;;;21.30;15.53;;;;;;;;;;5020481;28;20212;-57
2024/02/17 11:15:29;;;;;;;21.20;14.77;;;;;;;;;;5022709;28;20236;-57
2024/02/17 11:17:59;;;;;;;21.83;14.70;;;;;;;;;;5018090;28;20652;-57
2024/02/17 11:20:25;;;;;;;22.47;15.77;;;;;;;;;;5015755;28;20750;-57
2024/02/17 11:22:52;;;;;;;23.27;16.20;;;;;;;;;;5012637;28;20240;-57
2024/02/17 11:25:27;;;;;;;18.97;15.60;;;;;;;;;;5023055;28;20386;-57
2024/02/17 11:27:53;;;;;;;24.23;16.60;;;;;;;;;;5021010;28;20169;-57
2024/02/17 11:30:19;;;;;;;22.50;16.50;;;;;;;;;;5018646;28;20189;-57
2024/02/17 11:32:52;;;;;;;19.70;16.63;;;;;;;;;;5021788;28;20220;-57
2024/02/17 11:35:19;;;;;;;19.50;15.27;;;;;;;;;;5016345;28;20205;-57
2024/02/17 11:37:48;;;;;;;20.47;15.20;;;;;;;;;;5016572;28;20210;-56
2024/02/17 11:40:15;;;;;;;22.10;15.67;;;;;;;;;;5019045;28;20277;-57
2024/02/17 11:42:42;;;;;;;20.87;17.13;;;;;;;;;;5024029;28;20194;-57
2024/02/17 11:45:08;;;;;;;22.20;17.43;;;;;;;;;;5020278;28;20274;-57
2024/02/17 11:47:34;;;;;;;24.83;18.03;;;;;;;;;;5021393;28;20190;-57
2024/02/17 11:50:12;;;;;;;23.87;17.67;;;;;;;;;;5021243;28;20198;-57
2024/02/17 11:52:40;;;;;;;21.40;17.07;;;;;;;;;;5023838;28;20251;-57
2024/02/17 11:55:08;;;;;;;23.57;16.90;;;;;;;;;;5025692;28;20669;-57
2024/02/17 11:57:35;;;;;;;21.20;16.67;;;;;;;;;;5020135;28;20636;-57
2024/02/17 12:00:01;;;;;;;23.23;17.20;;;;;;;;;;5022113;28;20189;-57
2024/02/17 12:02:34;;;;;;;21.67;16.10;;;;;;;;;;5021858;28;20272;-57
2024/02/17 12:05:00;;;;;;;23.57;16.20;;;;;;;;;;5020449;28;20643;-57
2024/02/17 12:07:29;;;;;;;19.97;16.97;;;;;;;;;;5023809;28;20681;-54
2024/02/17 12:09:56;;;;;;;21.00;16.40;;;;;;;;;;5017858;28;20186;-56
2024/02/17 12:12:22;;;;;;;26.83;18.13;;;;;;;;;;5018767;28;20188;-55
2024/02/17 12:14:48;;;;;;;24.67;16.80;;;;;;;;;;5021451;28;20198;-56
2024/02/17 12:17:14;;;;;;;25.77;18.90;;;;;;;;;;5019318;28;20736;-55
2024/02/17 12:19:40;;;;;;;29.33;19.40;;;;;;;;;;5021694;28;20222;-56
2024/02/17 12:22:06;;;;;;;22.10;18.00;;;;;;;;;;5024500;28;20482;-54
2024/02/17 12:24:32;;;;;;;24.40;17.80;;;;;;;;;;5017812;28;20265;-55
2024/02/17 12:26:59;;;;;;;27.87;17.57;;;;;;;;;;5018792;28;20262;-56
2024/02/17 12:29:25;;;;;;;22.47;16.27;;;;;;;;;;5024620;28;20269;-55
2024/02/17 12:31:51;;;;;;;21.33;17.70;;;;;;;;;;5015255;28;20273;-55
2024/02/17 12:34:27;;;;;;;23.23;18.73;;;;;;;;;;5019061;28;20206;-55
2024/02/17 12:36:53;;;;;;;25.30;18.13;;;;;;;;;;5021234;28;20204;-55
2024/02/17 12:39:19;;;;;;;24.30;17.37;;;;;;;;;;5016992;28;20224;-55
2024/02/17 12:41:46;;;;;;;24.70;19.20;;;;;;;;;;5016780;28;20213;-55
2024/02/17 12:44:15;;;;;;;20.47;16.97;;;;;;;;;;5020272;28;20189;-55
2024/02/17 12:46:41;;;;;;;22.70;18.23;;;;;;;;;;5015762;28;20658;-55
2024/02/17 12:49:08;;;;;;;20.00;16.80;;;;;;;;;;5014915;28;20181;-55
2024/02/17 12:51:37;;;;;;;24.17;16.50;;;;;;;;;;5018697;28;20175;-56
2024/02/17 12:54:03;;;;;;;25.17;16.87;;;;;;;;;;5016457;28;20220;-55
2024/02/17 12:56:29;;;;;;;20.17;15.10;;;;;;;;;;5016708;28;20210;-55
2024/02/17 12:58:57;;;;;;;21.10;15.20;;;;;;;;;;5019464;28;20486;-55
2024/02/17 13:01:23;;;;;;;21.23;15.43;;;;;;;;;;5018779;28;20182;-55
2024/02/17 13:03:49;;;;;;;18.33;15.33;;;;;;;;;;5020759;28;20268;-56
2024/02/17 13:06:15;;;;;;;16.43;14.17;;;;;;;;;;5018086;28;20280;-52
2024/02/17 13:08:41;;;;;;;19.80;13.33;;;;;;;;;;5016591;28;20232;-53
2024/02/17 13:11:07;;;;;;;21.03;14.70;;;;;;;;;;5020291;28;20602;-52
2024/02/17 13:13:35;;;;;;;18.70;13.93;;;;;;;;;;5021102;28;20249;-53
2024/02/17 13:16:03;;;;;;;19.27;14.27;;;;;;;;;;5019394;28;20198;-52
2024/02/17 13:18:29;;;;;;;19.53;13.73;;;;;;;;;;5020676;28;20229;-55
2024/02/17 13:20:55;;;;;;;21.57;14.70;;;;;;;;;;5021267;28;20551;-55
2024/02/17 13:23:21;;;;;;;18.40;13.27;;;;;;;;;;5018235;28;20170;-55
2024/02/17 13:25:49;;;;;;;18.23;14.30;;;;;;;;;;5016305;28;20189;-55
2024/02/17 13:28:18;;;;;;;17.80;14.13;;;;;;;;;;5020275;28;20760;-55
2024/02/17 13:30:47;;;;;;;21.17;16.17;;;;;;;;;;5017767;28;20421;-54
2024/02/17 13:33:14;;;;;;;20.90;14.27;;;;;;;;;;5021278;28;20443;-55
2024/02/17 13:35:42;;;;;;;22.43;14.87;;;;;;;;;;5021788;28;20276;-54
2024/02/17 13:38:09;;;;;;;21.57;15.07;;;;;;;;;;5020243;28;20183;-55
2024/02/17 13:40:35;;;;;;;21.23;14.57;;;;;;;;;;5017064;28;20178;-54
2024/02/17 13:43:01;;;;;;;20.37;13.80;;;;;;;;;;5019196;28;20198;-53
2024/02/17 13:45:27;;;;;;;16.77;12.43;;;;;;;;;;5024742;28;20664;-52
2024/02/17 13:47:54;;;;;;;14.77;12.90;;;;;;;;;;5020485;28;20189;-53
2024/02/17 13:50:20;;;;;;;19.47;12.10;;;;;;;;;;5025041;28;20609;-54
2024/02/17 13:52:47;;;;;;;20.37;13.33;;;;;;;;;;5025141;28;20190;-54
2024/02/17 13:55:14;;;;;;;17.03;11.90;;;;;;;;;;5027810;28;20193;-54
2024/02/17 13:57:41;;;;;;;17.57;12.07;;;;;;;;;;5022675;28;20311;-52
2024/02/17 14:00:09;;;;;;;15.93;11.57;;;;;;;;;;5021097;28;20189;-54
2024/02/17 14:02:36;;;;;;;17.40;12.07;;;;;;;;;;5020328;28;20186;-55
2024/02/17 14:05:02;;;;;;;16.20;11.67;;;;;;;;;;5018705;28;20190;-52
2024/02/17 14:07:29;;;;;;;18.00;11.20;;;;;;;;;;5017450;28;20241;-54
2024/02/17 14:09:55;;;;;;;15.27;11.67;;;;;;;;;;5020291;28;20272;-55
2024/02/17 14:12:21;;;;;;;17.67;11.53;;;;;;;;;;5023907;28;20186;-52
2024/02/17 14:14:47;;;;;;;16.53;10.17;;;;;;;;;;5018446;28;20213;-52